首页
METAR-TAF:

METAR-TAF

机场 :

Lutselk'e, 西北特區, 加拿大

纬度: 62-25N, 经度: 110-40W, 海拔: 179米

当前天气观测

该预报发布于1小时和6分钟前的16:00 UTC
风速15节,风向东转东北,有时为21节阵风
温度 2°C
湿度 93%
气压 1002 hPa
能見度: 16.1公里
散云层高于1400英尺
阴天层高于7600英尺
小雨

METAR: CYLK 011600Z 07015G21KT 10SM -RA SCT014 OVC076 02/01 A2958 RMK SC3AC5 SLP028

时间: 11:06 (17:06 UTC)

预报

该预报发布于1小时和28分钟前的15:38 UTC
预报有效从01日的 16点(UTC)到 01日的 24点(UTC)
风速15节,风向东转东北,有时为25节阵风
能見度: 10公里
散云层高于2000英尺
多云层高于4000英尺
阴天层高于7000英尺
小雨
短暂存在
从 01日的 16点(UTC)到 01日的 24点(UTC)
能見度: 8.0公里
散云层高于500英尺
阴天层高于1500英尺
小阵雨, 轻雾

TAF: CYLK 011538Z 0116/0124 07015G25KT P6SM -RA SCT020 BKN040 OVC070 TEMPO 0116/0124 5SM -SHRA BR SCT005 OVC015 RMK NXT FCST BY 011900Z

超过4000个机场的气象观测和天气预报(METAR&TAF报告)。

可查询的气象台以黄色和红色小点在地图上表示。

将鼠标移到小点上方,可查看气象台名称。

然后点击查看天气观测和预报。

如需切换地图:点击带黑十字的绿色按钮放大地图;点击带横线的绿色按钮缩小地图;或者点击绿色箭头查看邻近地区的地图。


METAR-TAF: